createdAt,value
2023-05-14T00:24:27.534Z,13
2023-05-14T00:52:51.068Z,16
2023-05-14T01:21:07.407Z,17
2023-05-14T01:49:27.517Z,17
2023-05-14T02:17:47.808Z,16
2023-05-14T02:46:02.882Z,14
2023-05-14T03:14:31.659Z,17
2023-05-14T03:42:47.973Z,17
2023-05-14T04:11:08.311Z,17
2023-05-14T04:39:36.232Z,15
2023-05-14T05:07:58.723Z,14
2023-05-14T05:36:18.480Z,14
2023-05-14T06:04:46.148Z,20
2023-05-14T06:33:38.796Z,21
2023-05-14T07:02:49.637Z,17
2023-05-14T07:31:46.153Z,17
2023-05-14T08:00:43.877Z,16
2023-05-14T08:30:02.550Z,19
2023-05-14T08:59:04.702Z,16
2023-05-14T09:28:01.470Z,15
2023-05-14T09:56:49.374Z,13
2023-05-14T10:25:16.458Z,10
2023-05-14T10:54:26.571Z,8
2023-05-14T11:23:22.742Z,7
2023-05-14T11:52:22.638Z,8
2023-05-14T12:21:09.059Z,5
2023-05-14T12:50:10.211Z,7
2023-05-14T13:19:08.272Z,7
2023-05-14T13:47:34.509Z,8
2023-05-14T14:16:50.223Z,7
2023-05-14T14:45:09.781Z,8
2023-05-14T15:13:47.788Z,7
2023-05-14T15:42:04.975Z,6
2023-05-14T16:10:27.531Z,6
2023-05-14T16:38:57.104Z,6
2023-05-14T16:39:35.325Z,5
2023-05-14T17:07:39.131Z,7
2023-05-14T17:36:02.331Z,7
2023-05-14T18:04:22.420Z,7
2023-05-14T18:32:44.860Z,10
2023-05-14T19:00:56.274Z,10
2023-05-14T19:29:06.349Z,7
2023-05-14T19:57:22.958Z,7
2023-05-14T20:25:45.982Z,10
2023-05-14T20:53:59.532Z,9
2023-05-14T21:22:19.384Z,8
2023-05-14T21:50:32.024Z,10
2023-05-14T22:18:39.851Z,8
2023-05-14T22:47:02.192Z,10
2023-05-14T23:15:23.953Z,9
2023-05-14T23:43:37.376Z,10
